USSS 052030Z 00000MPS 9000 NSC 05/05 Q1011 R08L/010060 R08R/010060 NOSIG RMK QFE738/0985
QNH:(hPa/inHg/mmHg)1011 / 29.85 / 758
QFE:(hPa/inHg/mmHg)983 / 29.02 / 737
Temperature5
Dew Point5
Visibility9000
Weather
Cloud Cover
Transition Height900 m./3800 ft.
Transition LevelFL60
SQUAWK